Terminal Aerodrome Forecast
Issued by NWS Wilmington, OH

Current Version | Previous Version | Graphics & Text | Print | Product List | Glossary On
Versions: 1 2 3 4 5 6 7 8 9 10 11 12 13 14 15 16 17 18 19 20 21 22 23 24 25 26 27 28
000
FTUS41 KILN 251722
TAFDAY
TAF
KDAY 251722Z 2518/2618 24008KT P6SM FEW040 SCT150
     FM260100 25004KT P6SM FEW080 SCT200
      TEMPO 2609/2613 5SM BR
     FM261500 26004KT P6SM VCSH BKN040=

USA.gov is the U.S. government's official web portal to all federal, state and local government web resources and services.